sensor_id;sensor_type;location;lat;lon;timestamp;pressure;altitude;pressure_sealevel;temperature;humidity
13033;BME280;6583;42.632;23.298;2023-04-23T00:00:33;70898.69;;;-146.40;74.68
13033;BME280;6583;42.632;23.298;2023-04-23T00:03:05;70898.69;;;-146.40;75.01
13033;BME280;6583;42.632;23.298;2023-04-23T00:05:35;70890.59;;;-146.40;75.22
13033;BME280;6583;42.632;23.298;2023-04-23T00:08:04;70906.78;;;-146.40;75.26
13033;BME280;6583;42.632;23.298;2023-04-23T00:10:31;70912.84;;;-146.40;75.88
13033;BME280;6583;42.632;23.298;2023-04-23T00:12:58;70912.84;;;-146.40;76.30
13033;BME280;6583;42.632;23.298;2023-04-23T00:15:26;70894.66;;;-146.40;76.71
13033;BME280;6583;42.632;23.298;2023-04-23T00:17:52;70884.53;;;-146.40;76.54
13033;BME280;6583;42.632;23.298;2023-04-23T00:20:19;70870.38;;;-146.40;76.10
13033;BME280;6583;42.632;23.298;2023-04-23T00:22:46;70860.25;;;-146.40;75.19
13033;BME280;6583;42.632;23.298;2023-04-23T00:25:14;70862.28;;;-146.40;74.50
13033;BME280;6583;42.632;23.298;2023-04-23T00:27:40;70874.41;;;-146.40;73.91
13033;BME280;6583;42.632;23.298;2023-04-23T00:30:07;70886.56;;;-146.40;74.30
13033;BME280;6583;42.632;23.298;2023-04-23T00:32:34;70888.56;;;-146.40;74.71
13033;BME280;6583;42.632;23.298;2023-04-23T00:35:01;70886.56;;;-146.40;75.82
13033;BME280;6583;42.632;23.298;2023-04-23T00:37:28;70878.47;;;-146.40;75.39
13033;BME280;6583;42.632;23.298;2023-04-23T00:39:55;70852.16;;;-146.40;74.94
13033;BME280;6583;42.632;23.298;2023-04-23T00:42:24;70850.13;;;-146.40;73.52
13033;BME280;6583;42.632;23.298;2023-04-23T00:44:51;70842.03;;;-146.40;73.94
13033;BME280;6583;42.632;23.298;2023-04-23T00:47:17;70835.97;;;-146.40;75.10
13033;BME280;6583;42.632;23.298;2023-04-23T00:49:45;70829.91;;;-146.40;74.45
13033;BME280;6583;42.632;23.298;2023-04-23T00:52:12;70813.72;;;-146.40;73.66
13033;BME280;6583;42.632;23.298;2023-04-23T00:54:38;70805.63;;;-146.40;73.42
13033;BME280;6583;42.632;23.298;2023-04-23T00:57:05;70809.66;;;-146.40;72.34
13033;BME280;6583;42.632;23.298;2023-04-23T00:59:34;70821.81;;;-146.40;72.96
13033;BME280;6583;42.632;23.298;2023-04-23T01:02:01;70838.00;;;-146.40;73.68
13033;BME280;6583;42.632;23.298;2023-04-23T01:04:29;70866.31;;;-146.40;73.93
13033;BME280;6583;42.632;23.298;2023-04-23T01:06:58;70884.53;;;-146.40;74.91
13033;BME280;6583;42.632;23.298;2023-04-23T01:09:25;70892.63;;;-146.40;75.49
13033;BME280;6583;42.632;23.298;2023-04-23T01:11:52;70902.75;;;-146.40;76.68
13033;BME280;6583;42.632;23.298;2023-04-23T01:14:19;70890.59;;;-146.40;78.19
13033;BME280;6583;42.632;23.298;2023-04-23T01:16:48;70872.38;;;-146.40;77.54
13033;BME280;6583;42.632;23.298;2023-04-23T01:19:15;70852.16;;;-146.40;77.77
13033;BME280;6583;42.632;23.298;2023-04-23T01:21:41;70838.00;;;-146.40;77.46
13033;BME280;6583;42.632;23.298;2023-04-23T01:24:10;70825.84;;;-146.40;76.42
13033;BME280;6583;42.632;23.298;2023-04-23T01:26:38;70801.56;;;-146.40;74.24
13033;BME280;6583;42.632;23.298;2023-04-23T01:29:05;70805.63;;;-146.40;73.22
13033;BME280;6583;42.632;23.298;2023-04-23T01:31:32;70833.94;;;-146.40;73.09
13033;BME280;6583;42.632;23.298;2023-04-23T01:33:59;70860.25;;;-146.40;74.32
13033;BME280;6583;42.632;23.298;2023-04-23T01:36:26;70882.50;;;-146.40;75.26
13033;BME280;6583;42.632;23.298;2023-04-23T01:38:52;70898.69;;;-146.40;76.03
13033;BME280;6583;42.632;23.298;2023-04-23T01:41:21;70910.84;;;-146.40;76.65
13033;BME280;6583;42.632;23.298;2023-04-23T01:43:48;70918.94;;;-146.40;76.96
13033;BME280;6583;42.632;23.298;2023-04-23T01:46:15;70927.03;;;-146.40;77.53
13033;BME280;6583;42.632;23.298;2023-04-23T01:48:41;70925.00;;;-146.40;78.46
13033;BME280;6583;42.632;23.298;2023-04-23T01:51:08;70908.81;;;-146.40;79.72
13033;BME280;6583;42.632;23.298;2023-04-23T01:53:35;70894.66;;;-146.40;77.68
13033;BME280;6583;42.632;23.298;2023-04-23T01:56:02;70892.63;;;-146.40;76.69
13033;BME280;6583;42.632;23.298;2023-04-23T01:58:31;70894.66;;;-146.40;76.68
13033;BME280;6583;42.632;23.298;2023-04-23T02:00:58;70892.63;;;-146.40;77.50
13033;BME280;6583;42.632;23.298;2023-04-23T02:03:25;70884.53;;;-146.40;78.01
13033;BME280;6583;42.632;23.298;2023-04-23T02:05:52;70868.34;;;-146.40;76.71
13033;BME280;6583;42.632;23.298;2023-04-23T02:08:19;70860.25;;;-146.40;75.02
13033;BME280;6583;42.632;23.298;2023-04-23T02:10:46;70862.28;;;-146.40;74.72
13033;BME280;6583;42.632;23.298;2023-04-23T02:13:13;70858.22;;;-146.40;76.05
13033;BME280;6583;42.632;23.298;2023-04-23T02:15:41;70852.16;;;-146.40;74.32
13033;BME280;6583;42.632;23.298;2023-04-23T02:18:08;70862.28;;;-146.40;74.67
13033;BME280;6583;42.632;23.298;2023-04-23T02:20:35;70868.34;;;-146.40;75.00
13033;BME280;6583;42.632;23.298;2023-04-23T02:23:05;70872.38;;;-146.40;76.32
13033;BME280;6583;42.632;23.298;2023-04-23T02:25:31;70882.50;;;-146.40;76.01
13033;BME280;6583;42.632;23.298;2023-04-23T02:27:58;70870.38;;;-146.40;74.99
13033;BME280;6583;42.632;23.298;2023-04-23T02:30:26;70872.38;;;-146.40;76.18
13033;BME280;6583;42.632;23.298;2023-04-23T02:32:54;70870.38;;;-146.40;74.97
13033;BME280;6583;42.632;23.298;2023-04-23T02:35:21;70880.47;;;-146.40;73.86
13033;BME280;6583;42.632;23.298;2023-04-23T02:37:48;70892.63;;;-146.40;74.21
13033;BME280;6583;42.632;23.298;2023-04-23T02:40:14;70900.72;;;-146.40;74.13
13033;BME280;6583;42.632;23.298;2023-04-23T02:42:41;70906.78;;;-146.40;74.67
13033;BME280;6583;42.632;23.298;2023-04-23T02:45:08;70925.00;;;-146.40;75.62
13033;BME280;6583;42.632;23.298;2023-04-23T02:47:35;70945.22;;;-146.40;75.94
13033;BME280;6583;42.632;23.298;2023-04-23T02:50:04;70965.47;;;-146.40;76.75
13033;BME280;6583;42.632;23.298;2023-04-23T02:52:31;70975.59;;;-146.40;77.94
13033;BME280;6583;42.632;23.298;2023-04-23T02:54:58;70977.59;;;-146.40;78.25
13033;BME280;6583;42.632;23.298;2023-04-23T02:57:26;70975.59;;;-146.40;79.03
13033;BME280;6583;42.632;23.298;2023-04-23T02:59:53;70961.41;;;-146.40;80.43
13033;BME280;6583;42.632;23.298;2023-04-23T03:02:20;70947.25;;;-146.40;79.49
13033;BME280;6583;42.632;23.298;2023-04-23T03:04:46;70949.28;;;-146.40;77.74
13033;BME280;6583;42.632;23.298;2023-04-23T03:07:14;70955.34;;;-146.40;77.29
13033;BME280;6583;42.632;23.298;2023-04-23T03:09:42;70963.44;;;-146.40;77.54
13033;BME280;6583;42.632;23.298;2023-04-23T03:12:09;70963.44;;;-146.40;77.95
13033;BME280;6583;42.632;23.298;2023-04-23T03:14:35;70973.56;;;-146.40;78.38
13033;BME280;6583;42.632;23.298;2023-04-23T03:17:02;70959.41;;;-146.40;79.81
13033;BME280;6583;42.632;23.298;2023-04-23T03:19:29;70945.22;;;-146.40;78.80
13033;BME280;6583;42.632;23.298;2023-04-23T03:21:55;70943.22;;;-146.40;79.11
13033;BME280;6583;42.632;23.298;2023-04-23T03:24:23;70935.13;;;-146.40;79.03
13033;BME280;6583;42.632;23.298;2023-04-23T03:26:51;70912.84;;;-146.40;77.22
13033;BME280;6583;42.632;23.298;2023-04-23T03:29:18;70927.03;;;-146.40;75.78
13033;BME280;6583;42.632;23.298;2023-04-23T03:31:44;70939.16;;;-146.40;76.07
13033;BME280;6583;42.632;23.298;2023-04-23T03:34:11;70953.31;;;-146.40;76.91
13033;BME280;6583;42.632;23.298;2023-04-23T03:36:38;70959.41;;;-146.40;78.67
13033;BME280;6583;42.632;23.298;2023-04-23T03:39:05;70947.25;;;-146.40;78.88
13033;BME280;6583;42.632;23.298;2023-04-23T03:41:34;70945.22;;;-146.40;78.71
13033;BME280;6583;42.632;23.298;2023-04-23T03:44:00;70925.00;;;-146.40;78.48
13033;BME280;6583;42.632;23.298;2023-04-23T03:46:27;70918.94;;;-146.40;77.98
13033;BME280;6583;42.632;23.298;2023-04-23T03:48:54;70890.59;;;-146.40;77.70
13033;BME280;6583;42.632;23.298;2023-04-23T03:51:20;70874.41;;;-146.40;77.21
13033;BME280;6583;42.632;23.298;2023-04-23T03:53:47;70868.34;;;-146.40;74.53
13033;BME280;6583;42.632;23.298;2023-04-23T03:56:14;70866.31;;;-146.40;74.14
13033;BME280;6583;42.632;23.298;2023-04-23T03:58:42;70868.34;;;-146.40;73.87
13033;BME280;6583;42.632;23.298;2023-04-23T04:01:09;70862.28;;;-146.40;74.92
13033;BME280;6583;42.632;23.298;2023-04-23T04:03:35;70854.19;;;-146.40;75.69
13033;BME280;6583;42.632;23.298;2023-04-23T04:06:02;70842.03;;;-146.40;75.24
13033;BME280;6583;42.632;23.298;2023-04-23T04:08:29;70840.00;;;-146.40;74.33
13033;BME280;6583;42.632;23.298;2023-04-23T04:10:56;70825.84;;;-146.40;73.54
13033;BME280;6583;42.632;23.298;2023-04-23T04:13:22;70815.72;;;-146.40;73.04
13033;BME280;6583;42.632;23.298;2023-04-23T04:15:50;70801.56;;;-146.40;72.08
13033;BME280;6583;42.632;23.298;2023-04-23T04:18:17;70793.47;;;-146.40;72.24
13033;BME280;6583;42.632;23.298;2023-04-23T04:20:43;70789.44;;;-146.40;72.10
13033;BME280;6583;42.632;23.298;2023-04-23T04:23:10;70775.25;;;-146.40;71.78
13033;BME280;6583;42.632;23.298;2023-04-23T04:25:37;70765.16;;;-146.40;70.41
13033;BME280;6583;42.632;23.298;2023-04-23T04:28:04;70773.25;;;-146.40;70.87
13033;BME280;6583;42.632;23.298;2023-04-23T04:30:32;70771.22;;;-146.40;71.93
13033;BME280;6583;42.632;23.298;2023-04-23T04:33:00;70765.16;;;-146.40;72.55
13033;BME280;6583;42.632;23.298;2023-04-23T04:35:28;70773.25;;;-146.40;72.83
13033;BME280;6583;42.632;23.298;2023-04-23T04:37:54;70767.16;;;-146.40;73.74
13033;BME280;6583;42.632;23.298;2023-04-23T04:40:23;70771.22;;;-146.40;73.83
13033;BME280;6583;42.632;23.298;2023-04-23T04:42:50;70761.09;;;-146.40;74.38
13033;BME280;6583;42.632;23.298;2023-04-23T04:45:17;70755.03;;;-146.40;74.19
13033;BME280;6583;42.632;23.298;2023-04-23T04:47:44;70765.16;;;-146.40;74.16
13033;BME280;6583;42.632;23.298;2023-04-23T04:50:12;70757.06;;;-146.40;73.89
13033;BME280;6583;42.632;23.298;2023-04-23T04:52:38;70783.34;;;-146.40;74.72
13033;BME280;6583;42.632;23.298;2023-04-23T04:55:05;70767.16;;;-146.40;74.19
13033;BME280;6583;42.632;23.298;2023-04-23T04:57:32;70759.06;;;-146.40;74.70
13033;BME280;6583;42.632;23.298;2023-04-23T05:00:00;70777.28;;;-146.40;74.53
13033;BME280;6583;42.632;23.298;2023-04-23T05:02:29;70767.16;;;-146.40;75.44
13033;BME280;6583;42.632;23.298;2023-04-23T05:04:56;70763.13;;;-146.40;74.65
13033;BME280;6583;42.632;23.298;2023-04-23T05:07:24;70763.13;;;-146.40;74.89
13033;BME280;6583;42.632;23.298;2023-04-23T05:09:50;70740.88;;;-146.40;75.76
13033;BME280;6583;42.632;23.298;2023-04-23T05:12:17;70734.78;;;-146.40;75.22
13033;BME280;6583;42.632;23.298;2023-04-23T05:14:44;70742.88;;;-146.40;75.80
13033;BME280;6583;42.632;23.298;2023-04-23T05:17:10;70732.78;;;-146.40;76.15
13033;BME280;6583;42.632;23.298;2023-04-23T05:19:37;70755.03;;;-146.40;75.99
13033;BME280;6583;42.632;23.298;2023-04-23T05:22:04;70757.06;;;-146.40;76.15
13033;BME280;6583;42.632;23.298;2023-04-23T05:24:32;70757.06;;;-146.40;76.76
13033;BME280;6583;42.632;23.298;2023-04-23T05:26:59;70753.00;;;-146.40;75.60
13033;BME280;6583;42.632;23.298;2023-04-23T05:29:25;70736.81;;;-146.40;75.85
13033;BME280;6583;42.632;23.298;2023-04-23T05:31:52;70746.94;;;-146.40;75.20
13033;BME280;6583;42.632;23.298;2023-04-23T05:34:19;70761.09;;;-146.40;76.15
13033;BME280;6583;42.632;23.298;2023-04-23T05:36:46;70757.06;;;-146.40;76.74
13033;BME280;6583;42.632;23.298;2023-04-23T05:39:12;70742.88;;;-146.40;77.28
13033;BME280;6583;42.632;23.298;2023-04-23T05:41:40;70738.84;;;-146.40;75.82
13033;BME280;6583;42.632;23.298;2023-04-23T05:44:07;70736.81;;;-146.40;76.17
13033;BME280;6583;42.632;23.298;2023-04-23T05:46:34;70730.75;;;-146.40;76.45
13033;BME280;6583;42.632;23.298;2023-04-23T05:49:00;70732.78;;;-146.40;75.60
13033;BME280;6583;42.632;23.298;2023-04-23T05:51:27;70724.69;;;-146.40;74.96
13033;BME280;6583;42.632;23.298;2023-04-23T05:53:54;70720.63;;;-146.40;75.12
13033;BME280;6583;42.632;23.298;2023-04-23T05:56:20;70712.53;;;-146.40;75.07
13033;BME280;6583;42.632;23.298;2023-04-23T05:58:48;70710.50;;;-146.40;74.59
13033;BME280;6583;42.632;23.298;2023-04-23T06:01:15;70700.41;;;-146.40;74.12
13033;BME280;6583;42.632;23.298;2023-04-23T06:03:42;70692.31;;;-146.40;74.52
13033;BME280;6583;42.632;23.298;2023-04-23T06:06:09;70682.19;;;-146.40;73.73
13033;BME280;6583;42.632;23.298;2023-04-23T06:08:36;70672.06;;;-146.40;72.65
13033;BME280;6583;42.632;23.298;2023-04-23T06:11:03;70663.97;;;-146.40;72.80
13033;BME280;6583;42.632;23.298;2023-04-23T06:13:30;70655.88;;;-146.40;73.22
13033;BME280;6583;42.632;23.298;2023-04-23T06:15:58;70639.69;;;-146.40;72.41
13033;BME280;6583;42.632;23.298;2023-04-23T06:18:24;70627.56;;;-146.40;72.29
13033;BME280;6583;42.632;23.298;2023-04-23T06:20:52;70609.34;;;-146.40;71.93
13033;BME280;6583;42.632;23.298;2023-04-23T06:23:21;70609.34;;;-146.40;72.37
13033;BME280;6583;42.632;23.298;2023-04-23T06:25:47;70581.03;;;-146.40;72.39
13033;BME280;6583;42.632;23.298;2023-04-23T06:28:14;70554.72;;;-146.40;71.14
13033;BME280;6583;42.632;23.298;2023-04-23T06:30:41;70581.03;;;-146.40;70.85
13033;BME280;6583;42.632;23.298;2023-04-23T06:33:09;70579.00;;;-146.40;70.85
13033;BME280;6583;42.632;23.298;2023-04-23T06:35:36;70566.88;;;-146.40;71.68
13033;BME280;6583;42.632;23.298;2023-04-23T06:38:03;70534.50;;;-146.40;71.26
13033;BME280;6583;42.632;23.298;2023-04-23T06:40:30;70522.34;;;-146.40;69.62
13033;BME280;6583;42.632;23.298;2023-04-23T06:42:57;70502.13;;;-146.40;68.80
13033;BME280;6583;42.632;23.298;2023-04-23T06:45:24;70502.13;;;-146.40;68.42
13033;BME280;6583;42.632;23.298;2023-04-23T06:47:51;70473.78;;;-146.40;68.85
13033;BME280;6583;42.632;23.298;2023-04-23T06:50:19;70471.78;;;-146.40;66.84
13033;BME280;6583;42.632;23.298;2023-04-23T06:52:45;70467.72;;;-146.40;67.14
13033;BME280;6583;42.632;23.298;2023-04-23T06:55:12;70473.78;;;-146.40;67.32
13033;BME280;6583;42.632;23.298;2023-04-23T06:57:39;70447.50;;;-146.40;67.54
13033;BME280;6583;42.632;23.298;2023-04-23T07:00:07;70427.25;;;-146.40;65.82
13033;BME280;6583;42.632;23.298;2023-04-23T07:02:35;70409.06;;;-146.40;65.78
13033;BME280;6583;42.632;23.298;2023-04-23T07:05:05;70380.72;;;-146.40;65.17
13033;BME280;6583;42.632;23.298;2023-04-23T07:07:33;70368.59;;;-146.40;63.34
13033;BME280;6583;42.632;23.298;2023-04-23T07:10:01;70340.28;;;-146.40;62.40
13033;BME280;6583;42.632;23.298;2023-04-23T07:12:29;70348.38;;;-146.40;61.13
13033;BME280;6583;42.632;23.298;2023-04-23T07:14:56;70336.22;;;-146.40;62.39
13033;BME280;6583;42.632;23.298;2023-04-23T07:17:22;70342.28;;;-146.40;61.64
13033;BME280;6583;42.632;23.298;2023-04-23T07:19:49;70356.44;;;-146.40;61.07
13033;BME280;6583;42.632;23.298;2023-04-23T07:22:16;70338.25;;;-146.40;62.38
13033;BME280;6583;42.632;23.298;2023-04-23T07:24:44;70303.84;;;-146.40;60.76
13033;BME280;6583;42.632;23.298;2023-04-23T07:27:10;70295.75;;;-146.40;59.88
13033;BME280;6583;42.632;23.298;2023-04-23T07:29:37;70303.84;;;-146.40;59.28
13033;BME280;6583;42.632;23.298;2023-04-23T07:32:04;70305.88;;;-146.40;59.43
13033;BME280;6583;42.632;23.298;2023-04-23T07:34:31;70303.84;;;-146.40;59.87
13033;BME280;6583;42.632;23.298;2023-04-23T07:36:57;70299.81;;;-146.40;60.22
13033;BME280;6583;42.632;23.298;2023-04-23T07:39:24;70281.59;;;-146.40;59.07
13033;BME280;6583;42.632;23.298;2023-04-23T07:41:52;70281.59;;;-146.40;60.54
13033;BME280;6583;42.632;23.298;2023-04-23T07:44:19;70271.47;;;-146.40;58.23
13033;BME280;6583;42.632;23.298;2023-04-23T07:46:45;70267.44;;;-146.40;58.66
13033;BME280;6583;42.632;23.298;2023-04-23T07:49:12;70259.34;;;-146.40;58.53
13033;BME280;6583;42.632;23.298;2023-04-23T07:51:39;70271.47;;;-146.40;57.88
13033;BME280;6583;42.632;23.298;2023-04-23T07:54:07;70305.88;;;-146.40;58.67
13033;BME280;6583;42.632;23.298;2023-04-23T07:56:34;70303.84;;;-146.40;59.99
13033;BME280;6583;42.632;23.298;2023-04-23T07:59:02;70291.72;;;-146.40;61.13
13033;BME280;6583;42.632;23.298;2023-04-23T08:01:31;70285.66;;;-146.40;59.79
13033;BME280;6583;42.632;23.298;2023-04-23T08:03:57;70267.44;;;-146.40;59.14
13033;BME280;6583;42.632;23.298;2023-04-23T08:06:25;70259.34;;;-146.40;58.19
13033;BME280;6583;42.632;23.298;2023-04-23T08:08:52;70241.13;;;-146.40;58.79
13033;BME280;6583;42.632;23.298;2023-04-23T08:11:20;70235.06;;;-146.40;58.07
13033;BME280;6583;42.632;23.298;2023-04-23T08:13:47;70226.97;;;-146.40;56.82
13033;BME280;6583;42.632;23.298;2023-04-23T08:16:14;70188.53;;;-146.40;56.04
13033;BME280;6583;42.632;23.298;2023-04-23T08:18:41;70196.63;;;-146.40;53.75
13033;BME280;6583;42.632;23.298;2023-04-23T08:21:08;70192.59;;;-146.40;54.54
13033;BME280;6583;42.632;23.298;2023-04-23T08:23:37;70202.69;;;-146.40;53.71
13033;BME280;6583;42.632;23.298;2023-04-23T08:26:03;70198.66;;;-146.40;53.51
13033;BME280;6583;42.632;23.298;2023-04-23T08:28:30;70190.56;;;-146.40;53.75
13033;BME280;6583;42.632;23.298;2023-04-23T08:30:57;70188.53;;;-146.40;55.14
13033;BME280;6583;42.632;23.298;2023-04-23T08:33:25;70184.50;;;-146.40;54.07
13033;BME280;6583;42.632;23.298;2023-04-23T08:35:52;70186.50;;;-146.40;54.89
13033;BME280;6583;42.632;23.298;2023-04-23T08:38:18;70202.69;;;-146.40;54.86
13033;BME280;6583;42.632;23.298;2023-04-23T08:40:47;70186.50;;;-146.40;55.21
13033;BME280;6583;42.632;23.298;2023-04-23T08:43:15;70192.59;;;-146.40;55.63
13033;BME280;6583;42.632;23.298;2023-04-23T08:45:46;70190.56;;;-146.40;53.81
13033;BME280;6583;42.632;23.298;2023-04-23T08:48:13;70184.50;;;-146.40;54.23
13033;BME280;6583;42.632;23.298;2023-04-23T08:50:42;70188.53;;;-146.40;54.66
13033;BME280;6583;42.632;23.298;2023-04-23T08:53:09;70180.44;;;-146.40;54.11
13033;BME280;6583;42.632;23.298;2023-04-23T08:55:37;70166.28;;;-146.40;54.35
13033;BME280;6583;42.632;23.298;2023-04-23T08:58:05;70164.25;;;-146.40;52.55
13033;BME280;6583;42.632;23.298;2023-04-23T09:00:32;70166.28;;;-146.40;52.65
13033;BME280;6583;42.632;23.298;2023-04-23T09:03:00;70125.81;;;-146.40;52.33
13033;BME280;6583;42.632;23.298;2023-04-23T09:05:27;70095.47;;;-146.40;50.85
13033;BME280;6583;42.632;23.298;2023-04-23T09:07:55;70077.28;;;-146.40;50.62
13033;BME280;6583;42.632;23.298;2023-04-23T09:10:23;70077.28;;;-146.40;49.10
13033;BME280;6583;42.632;23.298;2023-04-23T09:12:49;70065.13;;;-146.40;48.57
13033;BME280;6583;42.632;23.298;2023-04-23T09:15:16;70077.28;;;-146.40;47.78
13033;BME280;6583;42.632;23.298;2023-04-23T09:17:44;70055.03;;;-146.40;48.15
13033;BME280;6583;42.632;23.298;2023-04-23T09:20:12;70073.22;;;-146.40;48.32
13033;BME280;6583;42.632;23.298;2023-04-23T09:22:40;70073.22;;;-146.40;49.28
13033;BME280;6583;42.632;23.298;2023-04-23T09:25:09;70053.00;;;-146.40;47.65
13033;BME280;6583;42.632;23.298;2023-04-23T09:27:37;70044.91;;;-146.40;47.38
13033;BME280;6583;42.632;23.298;2023-04-23T09:30:05;70053.00;;;-146.40;47.92
13033;BME280;6583;42.632;23.298;2023-04-23T09:32:34;70065.13;;;-146.40;47.17
13033;BME280;6583;42.632;23.298;2023-04-23T09:35:01;70057.03;;;-146.40;48.16
13033;BME280;6583;42.632;23.298;2023-04-23T09:37:29;70036.81;;;-146.40;48.27
13033;BME280;6583;42.632;23.298;2023-04-23T09:39:57;70034.78;;;-146.40;48.70
13033;BME280;6583;42.632;23.298;2023-04-23T09:42:27;70028.72;;;-146.40;47.42
13033;BME280;6583;42.632;23.298;2023-04-23T09:44:59;70024.69;;;-146.40;48.26
13033;BME280;6583;42.632;23.298;2023-04-23T09:47:29;70032.78;;;-146.40;48.02
13033;BME280;6583;42.632;23.298;2023-04-23T09:49:58;70028.72;;;-146.40;48.41
13033;BME280;6583;42.632;23.298;2023-04-23T09:52:25;70036.81;;;-146.40;47.65
13033;BME280;6583;42.632;23.298;2023-04-23T09:54:55;70044.91;;;-146.40;47.06
13033;BME280;6583;42.632;23.298;2023-04-23T09:57:23;70040.88;;;-146.40;48.63
13033;BME280;6583;42.632;23.298;2023-04-23T09:59:51;70038.84;;;-146.40;49.31
13033;BME280;6583;42.632;23.298;2023-04-23T10:02:18;70034.78;;;-146.40;51.17
13033;BME280;6583;42.632;23.298;2023-04-23T10:04:49;70022.66;;;-146.40;50.77
13033;BME280;6583;42.632;23.298;2023-04-23T10:07:17;70028.72;;;-146.40;47.59
13033;BME280;6583;42.632;23.298;2023-04-23T10:09:43;70022.66;;;-146.40;47.82
13033;BME280;6583;42.632;23.298;2023-04-23T10:12:12;70008.50;;;-146.40;47.50
13033;BME280;6583;42.632;23.298;2023-04-23T10:14:40;70018.59;;;-146.40;46.67
13033;BME280;6583;42.632;23.298;2023-04-23T10:17:08;70020.63;;;-146.40;46.64
13033;BME280;6583;42.632;23.298;2023-04-23T10:19:36;70026.69;;;-146.40;49.42
13033;BME280;6583;42.632;23.298;2023-04-23T10:22:07;70022.66;;;-146.40;46.94
13033;BME280;6583;42.632;23.298;2023-04-23T10:24:40;70018.59;;;-146.40;46.04
13033;BME280;6583;42.632;23.298;2023-04-23T10:27:10;70006.47;;;-146.40;47.02
13033;BME280;6583;42.632;23.298;2023-04-23T10:29:38;69996.34;;;-146.40;46.15
13033;BME280;6583;42.632;23.298;2023-04-23T10:32:05;69996.34;;;-146.40;46.75
13033;BME280;6583;42.632;23.298;2023-04-23T10:34:34;69996.34;;;-146.40;45.89
13033;BME280;6583;42.632;23.298;2023-04-23T10:37:01;69992.31;;;-146.40;46.25
13033;BME280;6583;42.632;23.298;2023-04-23T10:39:31;69980.19;;;-146.40;44.58
13033;BME280;6583;42.632;23.298;2023-04-23T10:41:59;69982.19;;;-146.40;43.42
13033;BME280;6583;42.632;23.298;2023-04-23T10:44:35;69972.09;;;-146.40;45.83
13033;BME280;6583;42.632;23.298;2023-04-23T10:47:04;69951.84;;;-146.40;44.92
13033;BME280;6583;42.632;23.298;2023-04-23T10:49:31;69943.75;;;-146.40;43.39
13033;BME280;6583;42.632;23.298;2023-04-23T10:52:01;69953.88;;;-146.40;44.51
13033;BME280;6583;42.632;23.298;2023-04-23T10:54:29;69947.81;;;-146.40;43.87
13033;BME280;6583;42.632;23.298;2023-04-23T10:56:59;69931.63;;;-146.40;44.15
13033;BME280;6583;42.632;23.298;2023-04-23T10:59:28;69921.50;;;-146.40;43.56
13033;BME280;6583;42.632;23.298;2023-04-23T11:01:56;69897.25;;;-146.40;42.74
13033;BME280;6583;42.632;23.298;2023-04-23T11:04:25;69891.16;;;-146.40;41.32
13033;BME280;6583;42.632;23.298;2023-04-23T11:06:54;69889.16;;;-146.40;43.28
13033;BME280;6583;42.632;23.298;2023-04-23T11:09:30;69887.13;;;-146.40;40.18
13033;BME280;6583;42.632;23.298;2023-04-23T11:11:58;69870.94;;;-146.40;40.97
13033;BME280;6583;42.632;23.298;2023-04-23T11:14:36;69854.75;;;-146.40;40.12
13033;BME280;6583;42.632;23.298;2023-04-23T11:17:04;69858.81;;;-146.40;40.49
13033;BME280;6583;42.632;23.298;2023-04-23T11:19:34;69850.72;;;-146.40;39.91
13033;BME280;6583;42.632;23.298;2023-04-23T11:22:03;69848.69;;;-146.40;39.83
13033;BME280;6583;42.632;23.298;2023-04-23T11:24:32;69848.69;;;-146.40;39.17
13033;BME280;6583;42.632;23.298;2023-04-23T11:27:04;69836.56;;;-146.40;39.28
13033;BME280;6583;42.632;23.298;2023-04-23T11:29:31;69822.41;;;-146.40;40.22
13033;BME280;6583;42.632;23.298;2023-04-23T11:31:59;69820.38;;;-146.40;37.51
13033;BME280;6583;42.632;23.298;2023-04-23T11:34:25;69818.34;;;-146.40;37.61
13033;BME280;6583;42.632;23.298;2023-04-23T11:36:54;69802.16;;;-146.40;38.93
13033;BME280;6583;42.632;23.298;2023-04-23T11:39:23;69810.25;;;-146.40;38.50
13033;BME280;6583;42.632;23.298;2023-04-23T11:41:52;69798.13;;;-146.40;37.90
13033;BME280;6583;42.632;23.298;2023-04-23T11:44:19;69802.16;;;-146.40;38.01
13033;BME280;6583;42.632;23.298;2023-04-23T11:46:46;69812.28;;;-146.40;36.58
13033;BME280;6583;42.632;23.298;2023-04-23T11:49:14;69806.22;;;-146.40;36.74
13033;BME280;6583;42.632;23.298;2023-04-23T11:51:43;69804.19;;;-146.40;34.58
13033;BME280;6583;42.632;23.298;2023-04-23T11:54:11;69804.19;;;-146.40;34.41
13033;BME280;6583;42.632;23.298;2023-04-23T11:56:39;69810.25;;;-146.40;33.64
13033;BME280;6583;42.632;23.298;2023-04-23T11:59:08;69798.13;;;-146.40;33.19
13033;BME280;6583;42.632;23.298;2023-04-23T12:01:44;69794.06;;;-146.40;33.00
13033;BME280;6583;42.632;23.298;2023-04-23T12:04:12;69781.94;;;-146.40;33.64
13033;BME280;6583;42.632;23.298;2023-04-23T12:06:40;69769.81;;;-146.40;34.14
13033;BME280;6583;42.632;23.298;2023-04-23T12:09:08;69763.72;;;-146.40;33.69
13033;BME280;6583;42.632;23.298;2023-04-23T12:11:36;69781.94;;;-146.40;33.55
13033;BME280;6583;42.632;23.298;2023-04-23T12:14:02;69775.88;;;-146.40;34.57
13033;BME280;6583;42.632;23.298;2023-04-23T12:16:35;69775.88;;;-146.40;33.99
13033;BME280;6583;42.632;23.298;2023-04-23T12:19:03;69771.81;;;-146.40;32.73
13033;BME280;6583;42.632;23.298;2023-04-23T12:21:30;69765.75;;;-146.40;34.50
13033;BME280;6583;42.632;23.298;2023-04-23T12:23:57;69753.63;;;-146.40;33.63
13033;BME280;6583;42.632;23.298;2023-04-23T12:26:24;69739.47;;;-146.40;34.25
13033;BME280;6583;42.632;23.298;2023-04-23T12:28:52;69725.31;;;-146.40;33.97
13033;BME280;6583;42.632;23.298;2023-04-23T12:31:21;69729.34;;;-146.40;31.84
13033;BME280;6583;42.632;23.298;2023-04-23T12:33:55;69729.34;;;-146.40;32.48
13033;BME280;6583;42.632;23.298;2023-04-23T12:36:26;69721.25;;;-146.40;32.48
13033;BME280;6583;42.632;23.298;2023-04-23T12:39:25;69763.72;;;-146.40;32.01
13033;BME280;6583;42.632;23.298;2023-04-23T12:41:55;69753.63;;;-146.40;33.28